createdAt,value
2018-12-08T00:01:29.999Z,7.40
2018-12-08T00:03:58.463Z,7.40
2018-12-08T00:06:26.906Z,7.40
2018-12-08T00:08:55.399Z,7.50
2018-12-08T00:11:23.990Z,7.40
2018-12-08T00:13:52.613Z,7.40
2018-12-08T00:16:21.206Z,7.40
2018-12-08T00:18:49.691Z,7.30
2018-12-08T00:21:18.163Z,7.30
2018-12-08T00:23:46.659Z,7.30
2018-12-08T00:26:15.127Z,7.20
2018-12-08T00:28:43.964Z,7.20
2018-12-08T00:31:23.724Z,7.20
2018-12-08T00:33:52.244Z,7.20
2018-12-08T00:36:20.724Z,7.20
2018-12-08T00:38:49.195Z,7.10
2018-12-08T00:41:17.631Z,7.10
2018-12-08T00:43:46.100Z,7.20
2018-12-08T00:46:14.558Z,7.20
2018-12-08T00:48:43.046Z,7.30
2018-12-08T00:51:11.512Z,7.30
2018-12-08T00:53:39.966Z,7.30
2018-12-08T00:56:08.506Z,7.30
2018-12-08T00:58:36.972Z,7.30
2018-12-08T01:01:05.456Z,7.40
2018-12-08T01:03:33.928Z,7.40
2018-12-08T01:06:02.420Z,7.30
2018-12-08T01:08:30.904Z,7.30
2018-12-08T01:10:59.379Z,7.30
2018-12-08T01:13:27.900Z,7.30
2018-12-08T01:15:56.583Z,7.30
2018-12-08T01:18:25.041Z,7.20
2018-12-08T01:20:53.512Z,7.20
2018-12-08T01:23:21.973Z,7.10
2018-12-08T01:25:50.599Z,7.20
2018-12-08T01:28:19.059Z,7.20
2018-12-08T01:30:47.540Z,7.20
2018-12-08T01:33:16.059Z,7.10
2018-12-08T01:35:44.544Z,7.10
2018-12-08T01:38:13.012Z,7.10
2018-12-08T01:40:41.481Z,7.10
2018-12-08T01:43:09.954Z,7.00
2018-12-08T01:45:38.437Z,6.90
2018-12-08T01:48:06.895Z,6.90
2018-12-08T01:50:35.396Z,6.80
2018-12-08T01:53:03.863Z,6.80
2018-12-08T01:55:32.345Z,6.70
2018-12-08T01:58:00.800Z,6.70
2018-12-08T02:00:29.267Z,6.70
2018-12-08T02:02:57.716Z,6.60
2018-12-08T02:05:26.213Z,6.50
2018-12-08T02:07:54.680Z,6.50
2018-12-08T02:10:23.187Z,6.50
2018-12-08T02:12:51.631Z,6.50
2018-12-08T02:15:20.124Z,6.40
2018-12-08T02:17:48.587Z,6.60
2018-12-08T02:20:17.068Z,6.60
2018-12-08T02:22:46.380Z,6.60
2018-12-08T02:25:14.912Z,6.60
2018-12-08T02:27:43.401Z,6.60
2018-12-08T02:30:12.596Z,6.60
2018-12-08T02:32:41.047Z,6.60
2018-12-08T02:35:09.512Z,6.60
2018-12-08T02:37:37.980Z,6.60
2018-12-08T02:40:08.397Z,6.60
2018-12-08T02:42:36.878Z,6.60
2018-12-08T02:45:05.592Z,6.60
2018-12-08T02:47:34.072Z,6.50
2018-12-08T02:50:02.636Z,6.50
2018-12-08T02:52:31.075Z,6.50
2018-12-08T02:54:59.542Z,6.50
2018-12-08T02:57:27.993Z,6.50
2018-12-08T02:59:56.448Z,6.50
2018-12-08T03:02:24.874Z,6.50
2018-12-08T03:04:53.314Z,6.40
2018-12-08T03:07:21.778Z,6.40
2018-12-08T03:09:50.235Z,6.30
2018-12-08T03:12:18.662Z,6.30
2018-12-08T03:14:47.116Z,6.40
2018-12-08T03:17:15.592Z,6.40
2018-12-08T03:19:44.036Z,6.40
2018-12-08T03:22:12.454Z,6.30
2018-12-08T03:24:40.914Z,6.30
2018-12-08T03:27:09.354Z,6.30
2018-12-08T03:29:37.818Z,6.20
2018-12-08T03:32:06.273Z,6.20
2018-12-08T03:34:34.848Z,6.10
2018-12-08T03:37:03.288Z,6.10
2018-12-08T03:39:31.747Z,6.00
2018-12-08T03:42:00.180Z,5.90
2018-12-08T03:44:28.648Z,5.90
2018-12-08T03:46:57.084Z,5.90
2018-12-08T03:49:25.634Z,5.90
2018-12-08T03:51:54.096Z,6.00
2018-12-08T03:54:22.550Z,6.00
2018-12-08T03:56:51.240Z,5.90
2018-12-08T03:59:19.683Z,5.90
2018-12-08T04:01:48.145Z,5.80
2018-12-08T04:04:16.580Z,5.80
2018-12-08T04:06:45.061Z,5.70
2018-12-08T04:09:13.512Z,5.70
2018-12-08T04:11:41.958Z,5.70
2018-12-08T04:14:10.392Z,5.70
2018-12-08T04:16:38.834Z,5.60
2018-12-08T04:19:07.281Z,5.70
2018-12-08T04:21:35.732Z,5.70
2018-12-08T04:24:04.300Z,5.70
2018-12-08T04:26:32.756Z,5.60
2018-12-08T04:29:01.191Z,5.60
2018-12-08T04:31:29.657Z,5.60
2018-12-08T04:33:58.096Z,5.50
2018-12-08T04:36:26.554Z,5.40
2018-12-08T04:38:55.049Z,5.40
2018-12-08T04:41:23.624Z,5.40
2018-12-08T04:43:52.104Z,5.30
2018-12-08T04:46:20.559Z,5.30
2018-12-08T04:48:48.995Z,5.20
2018-12-08T04:51:17.443Z,5.20
2018-12-08T04:53:45.880Z,5.20
2018-12-08T04:56:14.341Z,5.10
2018-12-08T04:58:42.775Z,5.10
2018-12-08T05:01:11.231Z,5.00
2018-12-08T05:03:39.659Z,5.10
2018-12-08T05:06:08.122Z,5.10
2018-12-08T05:08:36.551Z,5.10
2018-12-08T05:11:05.000Z,5.10
2018-12-08T05:13:33.426Z,5.10
2018-12-08T05:16:01.895Z,5.10
2018-12-08T05:18:30.388Z,5.20
2018-12-08T05:20:58.898Z,5.20
2018-12-08T05:23:27.340Z,5.20
2018-12-08T05:25:55.803Z,5.20
2018-12-08T05:28:24.227Z,5.20
2018-12-08T05:30:52.679Z,5.20
2018-12-08T05:33:21.128Z,5.20
2018-12-08T05:35:49.605Z,5.20
2018-12-08T05:38:18.070Z,5.20
2018-12-08T05:40:46.620Z,5.20
2018-12-08T05:43:15.056Z,5.30
2018-12-08T05:45:43.586Z,5.30
2018-12-08T05:48:12.037Z,5.30
2018-12-08T05:50:40.486Z,5.30
2018-12-08T05:53:08.916Z,5.40
2018-12-08T05:55:37.378Z,5.40
2018-12-08T05:58:05.809Z,5.40
2018-12-08T06:00:34.626Z,5.40
2018-12-08T06:03:03.063Z,5.40
2018-12-08T06:05:31.515Z,5.40
2018-12-08T06:07:59.989Z,5.50
2018-12-08T06:10:28.456Z,5.50
2018-12-08T06:12:56.889Z,5.50
2018-12-08T06:15:25.388Z,5.50
2018-12-08T06:17:53.835Z,5.50
2018-12-08T06:20:22.356Z,5.60
2018-12-08T06:22:50.817Z,5.60
2018-12-08T06:25:25.961Z,5.70
2018-12-08T06:28:01.162Z,5.80
2018-12-08T06:30:29.738Z,5.80
2018-12-08T06:32:58.206Z,5.90
2018-12-08T06:35:26.729Z,5.90
2018-12-08T06:37:55.168Z,6.00
2018-12-08T06:40:29.177Z,6.00
2018-12-08T06:42:54.101Z,6.00
2018-12-08T06:45:22.638Z,6.00
2018-12-08T06:47:51.099Z,5.90
2018-12-08T06:50:19.527Z,5.90
2018-12-08T06:52:48.074Z,5.90
2018-12-08T06:55:16.499Z,5.80
2018-12-08T06:57:45.037Z,5.80
2018-12-08T07:00:13.475Z,5.80
2018-12-08T07:02:41.928Z,5.90
2018-12-08T07:05:10.492Z,5.90
2018-12-08T07:07:38.934Z,5.90
2018-12-08T07:10:07.492Z,5.90
2018-12-08T07:12:35.949Z,6.00
2018-12-08T07:15:05.117Z,6.10
2018-12-08T07:17:40.813Z,6.10
2018-12-08T07:20:09.291Z,6.10
2018-12-08T07:22:37.754Z,6.20
2018-12-08T07:25:06.309Z,6.20
2018-12-08T07:27:34.764Z,6.20
2018-12-08T07:30:03.478Z,6.30
2018-12-08T07:32:38.789Z,6.30
2018-12-08T07:35:08.323Z,6.30
2018-12-08T07:37:36.810Z,6.30
2018-12-08T07:40:07.008Z,6.30
2018-12-08T07:42:35.581Z,6.30
2018-12-08T07:45:05.622Z,6.40
2018-12-08T07:47:34.065Z,6.40
2018-12-08T07:50:02.505Z,6.50
2018-12-08T07:52:30.990Z,6.50
2018-12-08T07:54:59.428Z,6.50
2018-12-08T07:57:27.904Z,6.50
2018-12-08T07:59:56.338Z,6.60
2018-12-08T08:02:24.792Z,6.60
2018-12-08T08:04:53.227Z,6.60
2018-12-08T08:07:21.707Z,6.60
2018-12-08T08:09:50.148Z,6.60
2018-12-08T08:12:18.590Z,6.70
2018-12-08T08:14:47.033Z,6.70
2018-12-08T08:17:15.492Z,6.70
2018-12-08T08:19:43.940Z,6.70
2018-12-08T08:22:12.531Z,6.70
2018-12-08T08:24:40.979Z,6.80
2018-12-08T08:27:09.423Z,6.90
2018-12-08T08:29:38.222Z,7.00
2018-12-08T08:32:06.773Z,7.00
2018-12-08T08:34:35.210Z,7.10
2018-12-08T08:37:03.678Z,7.10
2018-12-08T08:39:32.107Z,7.20
2018-12-08T08:42:00.589Z,7.10
2018-12-08T08:44:29.018Z,7.20
2018-12-08T08:46:57.447Z,7.20
2018-12-08T08:49:25.904Z,7.20
2018-12-08T08:51:54.725Z,7.20
2018-12-08T08:54:23.191Z,7.20
2018-12-08T08:56:51.628Z,7.20
2018-12-08T08:59:20.076Z,7.20
2018-12-08T09:01:48.524Z,7.20
2018-12-08T09:04:16.993Z,7.30
2018-12-08T09:06:45.434Z,7.30
2018-12-08T09:09:13.895Z,7.30
2018-12-08T09:11:42.341Z,7.30
2018-12-08T09:14:13.296Z,7.40
2018-12-08T09:16:41.309Z,7.40
2018-12-08T09:19:09.788Z,7.50
2018-12-08T09:21:38.244Z,7.50
2018-12-08T09:24:06.718Z,7.50
2018-12-08T09:26:35.212Z,7.50
2018-12-08T09:29:03.666Z,7.60
2018-12-08T09:31:32.120Z,7.60
2018-12-08T09:34:00.575Z,7.60
2018-12-08T09:36:29.044Z,7.60
2018-12-08T09:38:57.496Z,7.60
2018-12-08T09:41:26.048Z,7.60
2018-12-08T09:43:54.502Z,7.50
2018-12-08T09:46:22.949Z,7.60
2018-12-08T09:48:51.427Z,7.60
2018-12-08T09:51:19.862Z,7.70
2018-12-08T09:53:48.320Z,7.70
2018-12-08T09:56:16.753Z,7.60
2018-12-08T09:58:45.198Z,7.70
2018-12-08T10:01:13.656Z,7.70
2018-12-08T10:03:42.122Z,7.70
2018-12-08T10:06:10.584Z,7.70
2018-12-08T10:08:39.060Z,7.70
2018-12-08T10:11:07.699Z,7.70
2018-12-08T10:13:36.160Z,7.70
2018-12-08T10:16:04.594Z,7.80
2018-12-08T10:18:33.067Z,7.80
2018-12-08T10:21:01.636Z,7.80
2018-12-08T10:23:30.098Z,7.80
2018-12-08T10:25:58.552Z,7.70
2018-12-08T10:28:27.022Z,7.70
2018-12-08T10:30:55.454Z,7.70
2018-12-08T10:33:24.088Z,7.70
2018-12-08T10:35:52.548Z,7.70
2018-12-08T10:38:21.029Z,7.60
2018-12-08T10:40:49.464Z,7.60
2018-12-08T10:43:17.916Z,7.50
2018-12-08T10:45:46.360Z,7.40
2018-12-08T10:48:14.816Z,7.40
2018-12-08T10:50:43.256Z,7.40
2018-12-08T10:53:11.846Z,7.40
2018-12-08T10:55:40.296Z,7.30
2018-12-08T10:58:08.759Z,7.30
2018-12-08T11:01:40.154Z,7.20
2018-12-08T11:04:08.647Z,7.30
2018-12-08T11:06:37.088Z,7.30
2018-12-08T11:09:07.072Z,7.40
2018-12-08T11:11:35.526Z,7.60
2018-12-08T11:14:04.132Z,7.70
2018-12-08T11:16:32.587Z,7.60
2018-12-08T11:19:01.068Z,7.60
2018-12-08T11:21:29.525Z,7.50
2018-12-08T11:23:58.000Z,7.40
2018-12-08T11:26:26.449Z,7.40
2018-12-08T11:28:54.913Z,7.40
2018-12-08T11:31:23.370Z,7.40
2018-12-08T11:33:51.860Z,7.50
2018-12-08T11:36:20.312Z,7.40
2018-12-08T11:38:48.772Z,7.50
2018-12-08T11:41:17.237Z,7.50
2018-12-08T11:43:45.710Z,7.50
2018-12-08T11:46:14.143Z,7.50
2018-12-08T11:48:42.608Z,7.50
2018-12-08T11:51:11.044Z,7.50
2018-12-08T11:53:39.510Z,7.60
2018-12-08T11:56:07.958Z,7.60
2018-12-08T11:58:36.415Z,7.60
2018-12-08T12:01:05.017Z,7.50
2018-12-08T12:03:33.470Z,7.40
2018-12-08T12:06:01.940Z,7.40
2018-12-08T12:08:30.401Z,7.30
2018-12-08T12:10:58.852Z,7.40
2018-12-08T12:13:27.292Z,7.40
2018-12-08T12:15:55.763Z,7.50
2018-12-08T12:18:24.235Z,7.40
2018-12-08T12:20:52.724Z,7.40
2018-12-08T12:23:21.301Z,7.40
2018-12-08T12:25:49.990Z,7.40
2018-12-08T12:28:18.894Z,7.50
2018-12-08T12:30:47.990Z,7.50
2018-12-08T12:33:16.953Z,7.60
2018-12-08T12:35:45.832Z,7.70
2018-12-08T12:38:14.915Z,7.70
2018-12-08T12:40:43.695Z,7.80
2018-12-08T12:43:12.420Z,8.00
2018-12-08T12:45:41.219Z,8.10
2018-12-08T12:48:10.004Z,8.30
2018-12-08T12:50:38.908Z,8.30
2018-12-08T12:53:07.482Z,8.50
2018-12-08T12:55:36.176Z,8.50
2018-12-08T12:58:04.644Z,8.50
2018-12-08T13:00:33.122Z,8.30
2018-12-08T13:03:01.623Z,8.30
2018-12-08T13:05:30.099Z,8.20
2018-12-08T13:07:58.566Z,8.20
2018-12-08T13:10:27.281Z,8.20
2018-12-08T13:12:55.748Z,8.30
2018-12-08T13:15:24.231Z,8.20
2018-12-08T13:17:52.679Z,8.20
2018-12-08T13:20:21.158Z,8.10
2018-12-08T13:22:49.630Z,8.10
2018-12-08T13:25:23.428Z,8.00
2018-12-08T13:27:51.909Z,8.00
2018-12-08T13:30:20.506Z,7.90
2018-12-08T13:32:49.089Z,8.00
2018-12-08T13:35:29.006Z,7.90
2018-12-08T13:37:57.465Z,7.90
2018-12-08T13:40:26.079Z,7.80
2018-12-08T13:42:54.528Z,7.80
2018-12-08T13:45:23.001Z,7.80
2018-12-08T13:47:51.461Z,7.70
2018-12-08T13:50:19.949Z,7.60
2018-12-08T13:52:48.416Z,7.60
2018-12-08T13:55:16.910Z,7.60
2018-12-08T13:57:45.436Z,7.50
2018-12-08T14:00:14.029Z,7.40
2018-12-08T14:02:42.477Z,7.40
2018-12-08T14:05:10.964Z,7.40
2018-12-08T14:07:39.431Z,7.30
2018-12-08T14:10:08.431Z,7.30
2018-12-08T14:12:37.447Z,7.30
2018-12-08T14:15:06.203Z,7.30
2018-12-08T14:17:34.655Z,7.30
2018-12-08T14:20:37.908Z,7.30
2018-12-08T14:23:06.414Z,7.30
2018-12-08T14:25:34.900Z,7.30
2018-12-08T14:28:03.481Z,7.30
2018-12-08T14:30:32.059Z,7.30
2018-12-08T14:33:00.521Z,7.30
2018-12-08T14:35:29.106Z,7.40
2018-12-08T14:37:57.583Z,7.40
2018-12-08T14:40:26.039Z,7.40
2018-12-08T14:42:54.625Z,7.40
2018-12-08T14:45:23.079Z,7.50
2018-12-08T14:47:51.539Z,7.50
2018-12-08T14:50:19.971Z,7.50
2018-12-08T14:52:48.432Z,7.50
2018-12-08T14:55:16.909Z,7.60
2018-12-08T14:57:45.417Z,7.60
2018-12-08T15:00:14.304Z,7.60
2018-12-08T15:02:42.786Z,7.70
2018-12-08T15:05:11.674Z,7.60
2018-12-08T15:07:40.303Z,7.60
2018-12-08T15:10:11.024Z,7.60
2018-12-08T15:12:39.537Z,7.60
2018-12-08T15:15:09.540Z,7.70
2018-12-08T15:17:38.168Z,7.70
2018-12-08T15:20:08.527Z,7.70
2018-12-08T15:22:37.031Z,7.70
2018-12-08T15:25:07.439Z,7.70
2018-12-08T15:27:35.933Z,7.70
2018-12-08T15:30:05.398Z,7.70
2018-12-08T15:32:33.988Z,7.70
2018-12-08T15:35:02.488Z,7.60
2018-12-08T15:37:30.952Z,7.60
2018-12-08T15:39:59.520Z,7.60
2018-12-08T15:42:27.973Z,7.60
2018-12-08T15:44:56.654Z,7.70
2018-12-08T15:47:25.112Z,7.70
2018-12-08T15:49:53.547Z,7.70
2018-12-08T15:52:22.024Z,7.60
2018-12-08T15:54:50.487Z,7.70
2018-12-08T15:57:18.935Z,7.70
2018-12-08T15:59:47.496Z,7.70
2018-12-08T16:02:15.976Z,7.70
2018-12-08T16:04:44.418Z,7.70
2018-12-08T16:07:12.884Z,7.70
2018-12-08T16:09:41.374Z,7.70
2018-12-08T16:12:09.860Z,7.70
2018-12-08T16:14:38.337Z,7.70
2018-12-08T16:17:06.864Z,7.70
2018-12-08T16:19:35.372Z,7.70
2018-12-08T16:22:03.971Z,7.80
2018-12-08T16:24:32.540Z,7.70
2018-12-08T16:27:02.061Z,7.70
2018-12-08T16:29:30.508Z,7.70
2018-12-08T16:31:59.040Z,7.70
2018-12-08T16:34:27.484Z,7.70
2018-12-08T16:36:56.133Z,7.70
2018-12-08T16:39:24.589Z,7.70
2018-12-08T16:41:53.123Z,7.70
2018-12-08T16:44:21.587Z,7.70
2018-12-08T16:46:50.065Z,7.70
2018-12-08T16:49:18.528Z,7.70
2018-12-08T16:51:46.981Z,7.70
2018-12-08T16:54:15.467Z,7.70
2018-12-08T16:56:44.028Z,7.80
2018-12-08T16:59:12.516Z,7.80
2018-12-08T17:01:47.440Z,7.90
2018-12-08T17:04:16.028Z,7.80
2018-12-08T17:06:44.654Z,7.90
2018-12-08T17:09:13.237Z,7.90
2018-12-08T17:11:41.940Z,7.90
2018-12-08T17:14:10.456Z,7.90
2018-12-08T17:16:38.903Z,7.80
2018-12-08T17:19:07.384Z,7.80
2018-12-08T17:21:35.844Z,7.90
2018-12-08T17:24:04.435Z,7.90
2018-12-08T17:26:32.876Z,7.90
2018-12-08T17:29:01.328Z,7.90
2018-12-08T17:31:29.794Z,7.80
2018-12-08T17:33:58.328Z,7.80
2018-12-08T17:36:26.766Z,7.80
2018-12-08T17:38:55.238Z,7.80
2018-12-08T17:41:23.772Z,7.80
2018-12-08T17:43:52.287Z,7.80
2018-12-08T17:46:20.732Z,7.80
2018-12-08T17:48:49.312Z,7.90
2018-12-08T17:51:17.761Z,7.80
2018-12-08T17:53:46.218Z,7.80
2018-12-08T17:56:14.765Z,7.80
2018-12-08T17:58:43.264Z,7.80
2018-12-08T18:01:11.850Z,7.80
2018-12-08T18:03:40.296Z,7.80
2018-12-08T18:06:08.761Z,7.80
2018-12-08T18:08:37.196Z,7.80
2018-12-08T18:11:05.651Z,7.80
2018-12-08T18:13:34.101Z,7.80
2018-12-08T18:16:02.560Z,7.70
2018-12-08T18:18:31.015Z,7.70
2018-12-08T18:20:59.735Z,7.70
2018-12-08T18:23:28.356Z,7.80
2018-12-08T18:25:56.809Z,7.70
2018-12-08T18:28:25.244Z,7.70
2018-12-08T18:30:53.759Z,7.80
2018-12-08T18:33:22.222Z,7.70
2018-12-08T18:35:50.666Z,7.80
2018-12-08T18:38:19.098Z,7.80
2018-12-08T18:40:47.573Z,7.80
2018-12-08T18:43:16.040Z,7.80
2018-12-08T18:45:44.507Z,7.80
2018-12-08T18:48:12.940Z,7.80
2018-12-08T18:50:41.424Z,7.80
2018-12-08T18:53:09.958Z,7.80
2018-12-08T18:55:38.456Z,7.70
2018-12-08T18:58:06.898Z,7.70
2018-12-08T19:00:35.369Z,7.70
2018-12-08T19:03:03.815Z,7.80
2018-12-08T19:05:32.295Z,7.80
2018-12-08T19:08:00.860Z,7.80
2018-12-08T19:10:29.324Z,7.80
2018-12-08T19:12:57.797Z,7.80
2018-12-08T19:15:26.388Z,7.80
2018-12-08T19:17:54.827Z,7.90
2018-12-08T19:20:23.312Z,7.90
2018-12-08T19:22:51.766Z,7.90
2018-12-08T19:25:20.235Z,7.90
2018-12-08T19:27:48.781Z,7.90
2018-12-08T19:30:17.243Z,8.00
2018-12-08T19:32:45.709Z,8.00
2018-12-08T19:35:14.220Z,8.00
2018-12-08T19:37:42.648Z,7.90
2018-12-08T19:40:11.216Z,7.90
2018-12-08T19:42:39.687Z,8.00
2018-12-08T19:45:09.124Z,8.00
2018-12-08T19:47:37.616Z,8.00
2018-12-08T19:50:06.360Z,8.00
2018-12-08T19:52:35.287Z,8.00
2018-12-08T19:55:04.362Z,8.00
2018-12-08T19:57:33.067Z,8.00
2018-12-08T20:00:01.621Z,8.00
2018-12-08T20:02:30.051Z,8.00
2018-12-08T20:04:58.490Z,8.00
2018-12-08T20:07:26.928Z,8.00
2018-12-08T20:09:55.380Z,8.00
2018-12-08T20:12:23.820Z,8.00
2018-12-08T20:14:52.263Z,7.90
2018-12-08T20:17:20.702Z,7.90
2018-12-08T20:19:49.251Z,7.90
2018-12-08T20:22:17.749Z,7.90
2018-12-08T20:24:46.199Z,7.90
2018-12-08T20:27:14.678Z,7.90
2018-12-08T20:29:43.180Z,7.90
2018-12-08T20:32:11.664Z,8.00
2018-12-08T20:34:40.106Z,7.90
2018-12-08T20:37:08.592Z,8.00
2018-12-08T20:39:37.052Z,8.00
2018-12-08T20:42:05.532Z,8.00
2018-12-08T20:44:35.007Z,8.00
2018-12-08T20:47:03.520Z,8.00
2018-12-08T20:49:31.996Z,7.90
2018-12-08T20:52:00.483Z,7.90
2018-12-08T20:54:29.036Z,7.90
2018-12-08T20:56:57.503Z,8.00
2018-12-08T20:59:25.983Z,8.00
2018-12-08T21:01:54.493Z,8.00
2018-12-08T21:04:23.038Z,7.90
2018-12-08T21:06:51.507Z,8.00
2018-12-08T21:09:19.975Z,8.00
2018-12-08T21:11:48.449Z,8.00
2018-12-08T21:14:16.989Z,8.00
2018-12-08T21:16:45.475Z,8.10
2018-12-08T21:19:13.926Z,8.10
2018-12-08T21:21:42.378Z,8.10
2018-12-08T21:24:10.811Z,8.10
2018-12-08T21:26:39.320Z,8.20
2018-12-08T21:29:07.829Z,8.10
2018-12-08T21:31:36.400Z,8.20
2018-12-08T21:34:04.932Z,8.20
2018-12-08T21:36:33.382Z,8.20
2018-12-08T21:39:01.828Z,8.20
2018-12-08T21:41:30.287Z,8.20
2018-12-08T21:43:58.752Z,8.20
2018-12-08T21:46:27.259Z,8.30
2018-12-08T21:48:55.716Z,8.30
2018-12-08T21:51:24.170Z,8.40
2018-12-08T21:53:52.676Z,8.40
2018-12-08T21:56:21.156Z,8.40
2018-12-08T21:58:49.695Z,8.40
2018-12-08T22:01:18.191Z,8.30
2018-12-08T22:03:46.676Z,8.30
2018-12-08T22:06:15.149Z,8.30
2018-12-08T22:08:43.604Z,8.30
2018-12-08T22:11:12.215Z,8.20
2018-12-08T22:13:40.681Z,8.20
2018-12-08T22:16:09.141Z,8.10
2018-12-08T22:18:37.580Z,8.20
2018-12-08T22:21:06.043Z,8.20
2018-12-08T22:23:34.563Z,8.20
2018-12-08T22:26:03.015Z,8.30
2018-12-08T22:28:31.452Z,8.40
2018-12-08T22:30:59.960Z,8.40
2018-12-08T22:33:28.454Z,8.40
2018-12-08T22:35:56.930Z,8.40
2018-12-08T22:38:25.421Z,8.50
2018-12-08T22:40:53.900Z,8.50
2018-12-08T22:43:22.427Z,8.50
2018-12-08T22:45:51.012Z,8.60
2018-12-08T22:48:19.473Z,8.60
2018-12-08T22:50:47.961Z,8.70
2018-12-08T22:53:16.428Z,8.60
2018-12-08T22:55:44.855Z,8.60
2018-12-08T22:58:13.306Z,8.70
2018-12-08T23:00:45.838Z,8.70
2018-12-08T23:03:14.967Z,8.70
2018-12-08T23:05:43.806Z,8.80
2018-12-08T23:08:12.263Z,8.80
2018-12-08T23:10:40.703Z,8.80
2018-12-08T23:13:09.275Z,8.80
2018-12-08T23:15:37.706Z,8.80
2018-12-08T23:18:06.162Z,8.90
2018-12-08T23:20:34.596Z,8.90
2018-12-08T23:23:03.064Z,9.00
2018-12-08T23:25:31.536Z,9.00
2018-12-08T23:28:00.111Z,9.00
2018-12-08T23:30:28.702Z,8.90
2018-12-08T23:32:57.271Z,8.80
2018-12-08T23:35:26.531Z,8.80
2018-12-08T23:37:54.988Z,8.80
2018-12-08T23:40:23.548Z,8.70
2018-12-08T23:42:52.368Z,8.70
2018-12-08T23:45:21.285Z,8.70
2018-12-08T23:47:50.281Z,8.70
2018-12-08T23:50:19.342Z,8.70
2018-12-08T23:52:48.241Z,8.70
2018-12-08T23:55:17.104Z,8.70
2018-12-08T23:57:46.190Z,8.80
